Time;durP1;ratioP1;P1;durP2;ratioP2;P2;SDS_P1;SDS_P2;PMS_P1;PMS_P2;Temp;Humidity;BMP_temperature;BMP_pressure;BME280_temperature;BME280_humidity;BME280_pressure;Samples;Min_cycle;Max_cycle;Signal;HPM_P1;HPM_P2
2022/07/22 00:00:59;;;;;;;13.40;2.88;;;;;;;;;;4995876;28;92528;-72
2022/07/22 00:03:25;;;;;;;12.13;2.63;;;;;;;;;;4995606;28;93064;-72
2022/07/22 00:05:52;;;;;;;9.00;2.75;;;;;;;;;;4996062;28;92534;-72
2022/07/22 00:08:18;;;;;;;11.48;2.97;;;;;;;;;;4996313;28;92515;-73
2022/07/22 00:10:44;;;;;;;5.28;2.15;;;;;;;;;;4998402;28;94362;-72
2022/07/22 00:13:11;;;;;;;8.30;3.28;;;;;;;;;;4996857;28;91695;-72
2022/07/22 00:15:37;;;;;;;7.75;2.40;;;;;;;;;;4998329;28;93044;-72
2022/07/22 00:18:04;;;;;;;9.50;2.58;;;;;;;;;;4998653;28;93387;-72
2022/07/22 00:20:30;;;;;;;4.28;2.40;;;;;;;;;;4994836;28;94912;-72
2022/07/22 00:22:57;;;;;;;14.85;3.35;;;;;;;;;;4995422;28;95351;-72
2022/07/22 00:25:23;;;;;;;15.52;3.25;;;;;;;;;;4994900;28;94118;-72
2022/07/22 00:27:50;;;;;;;11.73;2.85;;;;;;;;;;4995900;28;93213;-72
2022/07/22 00:30:16;;;;;;;9.52;2.42;;;;;;;;;;4994324;28;92931;-72
2022/07/22 00:32:42;;;;;;;11.30;2.50;;;;;;;;;;4999200;28;93323;-72
2022/07/22 00:35:09;;;;;;;8.00;2.33;;;;;;;;;;4995945;28;93461;-73
2022/07/22 00:37:35;;;;;;;13.15;2.58;;;;;;;;;;4993660;28;92557;-72
2022/07/22 00:40:03;;;;;;;6.55;2.15;;;;;;;;;;4994650;28;92518;-72
2022/07/22 00:42:29;;;;;;;9.70;2.33;;;;;;;;;;4995743;28;93073;-73
2022/07/22 00:44:55;;;;;;;7.28;2.40;;;;;;;;;;4990991;28;97295;-72
2022/07/22 00:47:22;;;;;;;7.28;3.30;;;;;;;;;;4994109;28;92567;-72
2022/07/22 00:49:48;;;;;;;10.85;2.33;;;;;;;;;;4995045;28;92568;-72
2022/07/22 00:52:15;;;;;;;4.32;1.75;;;;;;;;;;4995110;28;93575;-72
2022/07/22 00:54:42;;;;;;;7.28;1.92;;;;;;;;;;4998471;28;92541;-72
2022/07/22 00:57:09;;;;;;;6.07;2.08;;;;;;;;;;4995598;28;93079;-73
2022/07/22 00:59:36;;;;;;;5.43;1.77;;;;;;;;;;4994391;28;93249;-72
2022/07/22 01:02:03;;;;;;;7.82;1.60;;;;;;;;;;4996136;28;93272;-72
2022/07/22 01:04:30;;;;;;;4.30;1.23;;;;;;;;;;4995486;28;93052;-72
2022/07/22 01:06:56;;;;;;;4.30;1.85;;;;;;;;;;4999066;28;92933;-72
2022/07/22 01:09:23;;;;;;;7.95;1.45;;;;;;;;;;4996519;28;94898;-72
2022/07/22 01:11:49;;;;;;;8.38;1.80;;;;;;;;;;5026660;28;93432;-72
2022/07/22 01:14:16;;;;;;;4.47;1.85;;;;;;;;;;4994767;28;92469;-72
2022/07/22 01:16:42;;;;;;;4.35;1.65;;;;;;;;;;4998038;28;92978;-72
2022/07/22 01:19:14;;;;;;;;;;;;;;;;;;4996433;28;92542;-73
2022/07/22 01:21:41;;;;;;;4.70;1.48;;;;;;;;;;4993975;28;115367;-73
2022/07/22 01:24:07;;;;;;;8.95;1.83;;;;;;;;;;4995588;28;92794;-72
2022/07/22 01:26:34;;;;;;;6.50;1.75;;;;;;;;;;4995026;28;92216;-73
2022/07/22 01:29:00;;;;;;;9.10;1.90;;;;;;;;;;4992870;28;94055;-72
2022/07/22 01:31:27;;;;;;;8.50;1.90;;;;;;;;;;4993203;28;94852;-72
2022/07/22 01:33:56;;;;;;;6.22;2.30;;;;;;;;;;5006801;28;95047;-73
2022/07/22 01:36:22;;;;;;;10.95;2.40;;;;;;;;;;4993194;28;96346;-72
2022/07/22 01:38:50;;;;;;;9.65;2.10;;;;;;;;;;4995715;28;94021;-72
2022/07/22 01:41:16;;;;;;;8.75;3.03;;;;;;;;;;4993187;28;93239;-72
2022/07/22 01:43:42;;;;;;;13.52;2.47;;;;;;;;;;4994138;28;93108;-72
2022/07/22 01:46:10;;;;;;;4.95;2.05;;;;;;;;;;4993236;28;93579;-72
2022/07/22 01:48:39;;;;;;;8.60;2.85;;;;;;;;;;4992023;28;92990;-72
2022/07/22 01:51:06;;;;;;;10.30;2.50;;;;;;;;;;4993962;28;94296;-72
2022/07/22 01:53:34;;;;;;;7.72;2.58;;;;;;;;;;4992372;28;93027;-73
2022/07/22 01:56:01;;;;;;;8.48;2.70;;;;;;;;;;4995068;28;92821;-73
2022/07/22 01:58:30;;;;;;;10.38;2.40;;;;;;;;;;4992414;28;94935;-73
2022/07/22 02:01:07;;;;;;;8.88;2.60;;;;;;;;;;4996374;28;92503;-73
2022/07/22 02:03:34;;;;;;;8.82;2.30;;;;;;;;;;4992530;28;95047;-72
2022/07/22 02:06:00;;;;;;;10.65;2.40;;;;;;;;;;5026971;27;92521;-72
2022/07/22 02:08:27;;;;;;;7.22;2.72;;;;;;;;;;4993326;28;92830;-73
2022/07/22 02:11:14;;;;;;;15.00;2.80;;;;;;;;;;4987125;28;94498;-73
2022/07/22 02:13:48;;;;;;;7.60;2.30;;;;;;;;;;4992702;28;92638;-72
2022/07/22 02:16:15;;;;;;;11.57;2.80;;;;;;;;;;4995556;28;94032;-73
2022/07/22 02:18:46;;;;;;;11.15;2.95;;;;;;;;;;4992104;28;93401;-72
2022/07/22 02:21:12;;;;;;;10.55;2.35;;;;;;;;;;4997185;28;92878;-73
2022/07/22 02:23:39;;;;;;;12.68;3.10;;;;;;;;;;4990283;28;98786;-72
2022/07/22 02:26:05;;;;;;;10.00;2.53;;;;;;;;;;4994518;28;92519;-72
2022/07/22 02:28:32;;;;;;;10.70;3.08;;;;;;;;;;4994332;28;93175;-72
2022/07/22 02:30:58;;;;;;;17.80;2.90;;;;;;;;;;4991456;28;94482;-73
2022/07/22 02:33:25;;;;;;;11.10;2.97;;;;;;;;;;4993090;28;93605;-72
2022/07/22 02:35:52;;;;;;;9.43;3.13;;;;;;;;;;4992184;28;95160;-72
2022/07/22 02:38:18;;;;;;;9.02;2.70;;;;;;;;;;4991465;28;95072;-72
2022/07/22 02:40:44;;;;;;;5.97;2.55;;;;;;;;;;4992924;28;92533;-72
2022/07/22 02:43:11;;;;;;;10.95;2.42;;;;;;;;;;4997072;28;92535;-72
2022/07/22 02:45:38;;;;;;;12.18;3.00;;;;;;;;;;4991655;28;93115;-72
2022/07/22 02:48:06;;;;;;;6.80;2.28;;;;;;;;;;5024352;27;94972;-72
2022/07/22 02:50:33;;;;;;;7.95;2.40;;;;;;;;;;4993184;28;93467;-72
2022/07/22 02:53:00;;;;;;;8.82;2.22;;;;;;;;;;4991651;28;92528;-72
2022/07/22 02:55:30;;;;;;;7.22;2.20;;;;;;;;;;4992590;28;92937;-72
2022/07/22 02:58:04;;;;;;;9.77;3.15;;;;;;;;;;4991309;28;93229;-73
2022/07/22 03:00:31;;;;;;;5.63;2.60;;;;;;;;;;5025631;28;92491;-72
2022/07/22 03:02:57;;;;;;;11.38;2.58;;;;;;;;;;4991864;28;93650;-72
2022/07/22 03:05:24;;;;;;;5.07;3.28;;;;;;;;;;4995179;28;95152;-73
2022/07/22 03:07:56;;;;;;;15.35;3.28;;;;;;;;;;4989200;28;92492;-72
2022/07/22 03:10:23;;;;;;;7.85;2.55;;;;;;;;;;4992396;28;92529;-72
2022/07/22 03:12:49;;;;;;;4.60;2.10;;;;;;;;;;4989768;28;95054;-72
2022/07/22 03:15:16;;;;;;;9.40;2.53;;;;;;;;;;4991596;28;97149;-72
2022/07/22 03:17:42;;;;;;;6.90;2.30;;;;;;;;;;4993251;28;93140;-72
2022/07/22 03:20:10;;;;;;;8.35;2.20;;;;;;;;;;4991111;28;93190;-72
2022/07/22 03:22:36;;;;;;;11.20;2.60;;;;;;;;;;4993207;28;92966;-72
2022/07/22 03:25:04;;;;;;;6.47;1.70;;;;;;;;;;4994216;28;93103;-72
2022/07/22 03:27:30;;;;;;;10.20;2.00;;;;;;;;;;4994511;28;93135;-72
2022/07/22 03:29:57;;;;;;;4.90;2.10;;;;;;;;;;4992382;28;93076;-72
2022/07/22 03:32:23;;;;;;;9.85;2.33;;;;;;;;;;4991900;28;92662;-72
2022/07/22 03:34:50;;;;;;;6.47;2.13;;;;;;;;;;4990688;28;95012;-72
2022/07/22 03:37:16;;;;;;;10.75;2.50;;;;;;;;;;4989622;28;97513;-72
2022/07/22 03:39:43;;;;;;;10.10;2.80;;;;;;;;;;4994377;28;92962;-72
2022/07/22 03:42:10;;;;;;;7.50;3.10;;;;;;;;;;4993060;28;92876;-72
2022/07/22 03:44:46;;;;;;;9.55;2.40;;;;;;;;;;4991655;28;94043;-72
2022/07/22 03:47:17;;;;;;;8.80;2.55;;;;;;;;;;4994648;28;93015;-72
2022/07/22 03:49:45;;;;;;;9.15;2.15;;;;;;;;;;5031061;28;94038;-72
2022/07/22 03:52:13;;;;;;;7.95;2.45;;;;;;;;;;4993318;28;92660;-73
2022/07/22 03:54:40;;;;;;;12.00;2.15;;;;;;;;;;4994285;28;94746;-72
2022/07/22 03:57:06;;;;;;;11.70;2.30;;;;;;;;;;4996773;28;93710;-72
2022/07/22 03:59:32;;;;;;;4.72;1.92;;;;;;;;;;4994868;28;92509;-73
2022/07/22 04:02:01;;;;;;;9.25;2.50;;;;;;;;;;4973251;28;94952;-71
2022/07/22 04:04:28;;;;;;;8.35;2.33;;;;;;;;;;4993821;28;94942;-72
2022/07/22 04:06:54;;;;;;;4.43;1.63;;;;;;;;;;4994534;28;92682;-72
2022/07/22 04:09:27;;;;;;;9.32;1.90;;;;;;;;;;4997057;28;93056;-72
2022/07/22 04:11:54;;;;;;;3.85;1.88;;;;;;;;;;4994644;28;92884;-72
2022/07/22 04:14:23;;;;;;;12.95;2.53;;;;;;;;;;4995374;28;93272;-72
2022/07/22 04:16:50;;;;;;;9.07;2.30;;;;;;;;;;4993872;28;93548;-72
2022/07/22 04:19:17;;;;;;;2.35;1.80;;;;;;;;;;5011771;28;91826;-72
2022/07/22 04:21:52;;;;;;;5.43;1.45;;;;;;;;;;4993904;28;94551;-72
2022/07/22 04:24:20;;;;;;;8.52;1.80;;;;;;;;;;4976936;28;95339;-72
2022/07/22 04:26:47;;;;;;;10.32;1.70;;;;;;;;;;4993386;28;95012;-71
2022/07/22 04:29:14;;;;;;;6.70;1.73;;;;;;;;;;4995032;28;96092;-73
2022/07/22 04:31:40;;;;;;;8.00;1.98;;;;;;;;;;4997017;28;94193;-72
2022/07/22 04:34:12;;;;;;;7.90;1.90;;;;;;;;;;4994792;28;92941;-72
2022/07/22 04:36:38;;;;;;;7.75;2.20;;;;;;;;;;4993610;28;93262;-72
2022/07/22 04:39:05;;;;;;;6.43;1.80;;;;;;;;;;4994732;28;92532;-72
2022/07/22 04:41:33;;;;;;;10.30;1.80;;;;;;;;;;4993757;28;92917;-72
2022/07/22 04:43:59;;;;;;;2.92;1.50;;;;;;;;;;4993863;28;93400;-72
2022/07/22 04:46:28;;;;;;;5.30;1.65;;;;;;;;;;4994336;28;92849;-72
2022/07/22 04:48:56;;;;;;;3.08;1.40;;;;;;;;;;5002192;28;92916;-72
2022/07/22 04:51:24;;;;;;;3.83;1.52;;;;;;;;;;4992436;28;95481;-72
2022/07/22 04:53:56;;;;;;;7.60;1.95;;;;;;;;;;4996763;28;92792;-72
2022/07/22 04:56:23;;;;;;;4.00;1.73;;;;;;;;;;5025861;27;94904;-72
2022/07/22 04:58:51;;;;;;;5.78;1.90;;;;;;;;;;4992767;28;92666;-72
2022/07/22 05:01:18;;;;;;;10.82;1.80;;;;;;;;;;4993792;28;92648;-72
2022/07/22 05:03:48;;;;;;;4.80;1.45;;;;;;;;;;4997097;28;93371;-72
2022/07/22 05:06:15;;;;;;;9.13;1.63;;;;;;;;;;4989824;28;92795;-72
2022/07/22 05:08:43;;;;;;;3.05;1.25;;;;;;;;;;4981070;28;95597;-72
2022/07/22 05:11:10;;;;;;;3.53;1.52;;;;;;;;;;4982793;28;93652;-72
2022/07/22 05:13:36;;;;;;;7.07;1.33;;;;;;;;;;4984778;28;94542;-72
2022/07/22 05:16:03;;;;;;;4.47;1.50;;;;;;;;;;4984639;28;94914;-72
2022/07/22 05:18:32;;;;;;;5.78;1.45;;;;;;;;;;4988508;28;92703;-72
2022/07/22 05:20:59;;;;;;;8.07;1.20;;;;;;;;;;4982612;28;95632;-72
2022/07/22 05:23:25;;;;;;;6.35;1.42;;;;;;;;;;4991789;28;94447;-72
2022/07/22 05:25:52;;;;;;;2.75;1.50;;;;;;;;;;5014788;27;93833;-72
2022/07/22 05:28:19;;;;;;;6.10;1.52;;;;;;;;;;4991605;28;94698;-72
2022/07/22 05:30:47;;;;;;;5.75;1.38;;;;;;;;;;4988508;28;94159;-73
2022/07/22 05:33:14;;;;;;;7.18;1.50;;;;;;;;;;4999085;28;93153;-72
2022/07/22 05:36:02;;;;;;;8.43;1.58;;;;;;;;;;5003116;28;94378;-72
2022/07/22 05:38:35;;;;;;;4.38;1.42;;;;;;;;;;5009649;28;93245;-72
2022/07/22 05:41:02;;;;;;;11.05;2.15;;;;;;;;;;4983835;28;96393;-72
2022/07/22 05:43:28;;;;;;;6.15;1.70;;;;;;;;;;5000336;28;95694;-72
2022/07/22 05:45:55;;;;;;;11.38;1.58;;;;;;;;;;4992869;28;93392;-72
2022/07/22 05:48:22;;;;;;;5.10;1.27;;;;;;;;;;4991973;28;93683;-72
2022/07/22 05:50:48;;;;;;;1.98;1.20;;;;;;;;;;4992805;28;94945;-72
2022/07/22 05:53:15;;;;;;;6.22;1.38;;;;;;;;;;4992895;28;92559;-73
2022/07/22 05:55:42;;;;;;;4.00;1.15;;;;;;;;;;4991358;28;92916;-72
2022/07/22 05:58:09;;;;;;;7.20;1.45;;;;;;;;;;4984144;28;93343;-73
2022/07/22 06:00:36;;;;;;;8.02;1.50;;;;;;;;;;5005233;28;92599;-72
2022/07/22 06:03:03;;;;;;;5.97;1.50;;;;;;;;;;4980653;28;93665;-72
2022/07/22 06:05:31;;;;;;;6.47;2.05;;;;;;;;;;4984776;27;96563;-72
2022/07/22 06:08:06;;;;;;;6.32;1.50;;;;;;;;;;4995415;28;97086;-70
2022/07/22 06:10:40;;;;;;;2.83;1.83;;;;;;;;;;4989890;28;96977;-70
2022/07/22 06:13:07;;;;;;;2.80;1.55;;;;;;;;;;4983817;28;94055;-70
2022/07/22 06:15:34;;;;;;;6.13;1.40;;;;;;;;;;4984648;28;93006;-72
2022/07/22 06:18:01;;;;;;;3.97;1.40;;;;;;;;;;4979650;28;94225;-70
2022/07/22 06:20:27;;;;;;;8.25;1.70;;;;;;;;;;4999528;27;93209;-72
2022/07/22 06:22:54;;;;;;;7.07;2.08;;;;;;;;;;4995888;28;93463;-72
2022/07/22 06:25:22;;;;;;;8.52;1.42;;;;;;;;;;4995350;28;92576;-72
2022/07/22 06:28:11;;;;;;;4.70;1.25;;;;;;;;;;4999539;28;93560;-72
2022/07/22 06:30:39;;;;;;;4.57;1.33;;;;;;;;;;4981456;28;98159;-72
2022/07/22 06:33:05;;;;;;;10.02;1.65;;;;;;;;;;4981435;28;94419;-72
2022/07/22 06:35:32;;;;;;;2.72;1.33;;;;;;;;;;4984482;28;94233;-72
2022/07/22 06:37:59;;;;;;;6.90;1.67;;;;;;;;;;4985723;28;94225;-72
2022/07/22 06:40:53;;;;;;;5.00;1.42;;;;;;;;;;4985522;28;93660;-73
2022/07/22 06:43:38;;;;;;;7.18;1.52;;;;;;;;;;4999156;28;92580;-72
2022/07/22 06:46:27;;;;;;;4.50;1.60;;;;;;;;;;4989104;28;94372;-74
2022/07/22 06:48:55;;;;;;;5.00;1.20;;;;;;;;;;4993317;28;93715;-72
2022/07/22 06:51:24;;;;;;;3.85;1.40;;;;;;;;;;5011477;28;93344;-72
2022/07/22 06:53:54;;;;;;;4.45;1.52;;;;;;;;;;5009642;28;92678;-72
2022/07/22 06:56:20;;;;;;;2.42;1.23;;;;;;;;;;4980185;28;96408;-73
2022/07/22 06:58:47;;;;;;;5.03;1.40;;;;;;;;;;5003657;28;92536;-73
2022/07/22 07:01:14;;;;;;;4.22;1.58;;;;;;;;;;4996219;28;92492;-74
2022/07/22 07:03:52;;;;;;;4.18;1.58;;;;;;;;;;4998813;28;95120;-73
2022/07/22 07:06:19;;;;;;;4.95;1.85;;;;;;;;;;4994365;28;95064;-72
2022/07/22 07:09:05;;;;;;;4.47;1.38;;;;;;;;;;4972407;28;92585;-72
2022/07/22 07:11:34;;;;;;;3.72;1.67;;;;;;;;;;4991241;28;93180;-72
2022/07/22 07:14:05;;;;;;;5.30;1.70;;;;;;;;;;4992809;28;92323;-72
2022/07/22 07:16:31;;;;;;;5.00;1.10;;;;;;;;;;4991553;28;95548;-72
2022/07/22 07:18:58;;;;;;;3.47;1.25;;;;;;;;;;4989899;28;95039;-72
2022/07/22 07:21:26;;;;;;;4.93;1.35;;;;;;;;;;4992693;28;95014;-72
2022/07/22 07:23:52;;;;;;;4.97;0.98;;;;;;;;;;4995020;28;97969;-72
2022/07/22 07:26:19;;;;;;;3.20;1.30;;;;;;;;;;4994543;28;95768;-72
2022/07/22 07:28:45;;;;;;;3.45;1.42;;;;;;;;;;4999949;28;92946;-72
2022/07/22 07:31:25;;;;;;;7.93;2.38;;;;;;;;;;4995770;28;93119;-72
2022/07/22 07:33:53;;;;;;;2.88;1.45;;;;;;;;;;4994529;28;92679;-72
2022/07/22 07:36:20;;;;;;;3.33;1.20;;;;;;;;;;4996936;28;92950;-72
2022/07/22 07:38:49;;;;;;;2.30;1.23;;;;;;;;;;4990869;28;94317;-72
2022/07/22 07:41:15;;;;;;;4.07;1.52;;;;;;;;;;4991268;28;93379;-72
2022/07/22 07:43:43;;;;;;;3.72;1.70;;;;;;;;;;4986719;28;95022;-72
2022/07/22 07:46:11;;;;;;;7.47;1.70;;;;;;;;;;4992980;28;98225;-71
2022/07/22 07:48:38;;;;;;;7.38;1.50;;;;;;;;;;4993647;28;92540;-72
2022/07/22 07:51:07;;;;;;;3.53;1.70;;;;;;;;;;4999589;28;92660;-72
2022/07/22 07:53:33;;;;;;;1.88;1.20;;;;;;;;;;4994533;28;92591;-72
2022/07/22 07:56:01;;;;;;;3.10;1.20;;;;;;;;;;4994143;28;93645;-72
2022/07/22 07:58:28;;;;;;;7.68;1.77;;;;;;;;;;4986662;28;94671;-72
2022/07/22 08:01:00;;;;;;;3.92;1.70;;;;;;;;;;5028504;28;92766;-73
2022/07/22 08:03:27;;;;;;;3.28;1.40;;;;;;;;;;4995544;28;95387;-72
2022/07/22 08:05:54;;;;;;;3.80;1.70;;;;;;;;;;4993284;28;95532;-72
2022/07/22 08:08:24;;;;;;;4.25;1.35;;;;;;;;;;4997030;28;92582;-72
2022/07/22 08:10:52;;;;;;;4.18;1.60;;;;;;;;;;5020815;28;95286;-72
2022/07/22 08:13:56;;;;;;;2.80;1.27;;;;;;;;;;5005180;28;93776;-72
2022/07/22 08:16:50;;;;;;;6.75;1.77;;;;;;;;;;4986474;28;93192;-72
2022/07/22 08:19:16;;;;;;;2.80;1.00;;;;;;;;;;5014208;28;95507;-72
2022/07/22 08:21:43;;;;;;;1.63;1.42;;;;;;;;;;5005737;28;92960;-72
2022/07/22 08:24:22;;;;;;;1.75;1.10;;;;;;;;;;5009688;28;92889;-72
2022/07/22 08:26:49;;;;;;;10.50;1.70;;;;;;;;;;5013179;28;95174;-73
2022/07/22 08:29:16;;;;;;;6.35;1.60;;;;;;;;;;5013623;28;92082;-73
2022/07/22 08:31:43;;;;;;;3.22;1.55;;;;;;;;;;5013911;28;93191;-73
2022/07/22 08:34:13;;;;;;;3.15;1.42;;;;;;;;;;5017352;28;95100;-73
2022/07/22 08:36:39;;;;;;;4.68;1.38;;;;;;;;;;5005220;28;95057;-73
2022/07/22 08:39:06;;;;;;;1.23;1.13;;;;;;;;;;5012945;28;95428;-74
2022/07/22 08:41:35;;;;;;;2.15;1.00;;;;;;;;;;5000989;28;92632;-74
2022/07/22 08:44:03;;;;;;;2.90;1.27;;;;;;;;;;4993052;28;95121;-73
2022/07/22 08:46:31;;;;;;;6.40;1.63;;;;;;;;;;4993028;28;94913;-73
2022/07/22 08:49:18;;;;;;;2.05;1.35;;;;;;;;;;4995819;28;92498;-73
2022/07/22 08:52:14;;;;;;;2.85;1.23;;;;;;;;;;5027419;28;92511;-73
2022/07/22 08:54:46;;;;;;;;;;;;;;;;;;4994999;28;91782;-73
2022/07/22 08:57:14;;;;;;;4.13;1.15;;;;;;;;;;4997663;28;92466;-73
2022/07/22 08:59:51;;;;;;;7.03;1.58;;;;;;;;;;4993873;28;94229;-73
2022/07/22 09:02:18;;;;;;;2.85;1.23;;;;;;;;;;4994013;28;96305;-73
2022/07/22 09:04:55;;;;;;;4.40;1.30;;;;;;;;;;4993791;28;95339;-73
2022/07/22 09:07:33;;;;;;;2.53;1.30;;;;;;;;;;4993448;28;94204;-73
2022/07/22 09:10:16;;;;;;;5.55;1.52;;;;;;;;;;4989699;28;92565;-73
2022/07/22 09:13:04;;;;;;;3.85;1.45;;;;;;;;;;4988590;28;92824;-73
2022/07/22 09:15:50;;;;;;;2.38;1.13;;;;;;;;;;4993367;28;93563;-73
2022/07/22 09:18:49;;;;;;;2.92;1.33;;;;;;;;;;4993238;28;92676;-73
2022/07/22 09:21:34;;;;;;;5.82;1.55;;;;;;;;;;4998188;28;92457;-73
2022/07/22 09:24:31;;;;;;;1.45;0.90;;;;;;;;;;4992335;28;92655;-73
2022/07/22 09:27:23;;;;;;;2.70;1.23;;;;;;;;;;4992532;28;92454;-73
2022/07/22 09:30:23;;;;;;;4.00;1.48;;;;;;;;;;5018789;28;97800;-71
2022/07/22 09:32:56;;;;;;;3.03;1.38;;;;;;;;;;4992533;28;92531;-73
2022/07/22 09:35:38;;;;;;;7.65;1.50;;;;;;;;;;4994060;28;93119;-71
2022/07/22 09:38:05;;;;;;;1.77;1.17;;;;;;;;;;4993345;28;95235;-73
2022/07/22 09:40:36;;;;;;;3.90;1.60;;;;;;;;;;4993200;28;92564;-72
2022/07/22 09:43:06;;;;;;;9.67;1.80;;;;;;;;;;4992608;28;95682;-72
2022/07/22 09:45:33;;;;;;;4.55;1.42;;;;;;;;;;4995455;28;95103;-72
2022/07/22 09:48:01;;;;;;;3.22;1.42;;;;;;;;;;4992996;28;93056;-72
2022/07/22 09:50:48;;;;;;;5.75;1.10;;;;;;;;;;4992793;28;95460;-72
2022/07/22 09:53:16;;;;;;;1.98;1.25;;;;;;;;;;4993538;28;92583;-71
2022/07/22 09:55:53;;;;;;;3.28;1.65;;;;;;;;;;4991256;28;95046;-72
2022/07/22 09:58:20;;;;;;;6.07;1.42;;;;;;;;;;4991469;28;93246;-72
2022/07/22 10:00:47;;;;;;;3.22;1.55;;;;;;;;;;4989269;28;94138;-72
2022/07/22 10:03:39;;;;;;;1.80;1.10;;;;;;;;;;4993594;28;92967;-71
2022/07/22 10:06:06;;;;;;;1.95;1.30;;;;;;;;;;4991665;28;93182;-72
2022/07/22 10:08:36;;;;;;;3.70;1.23;;;;;;;;;;4993137;28;95225;-75
2022/07/22 10:11:04;;;;;;;1.67;1.20;;;;;;;;;;4992967;28;92473;-73
2022/07/22 10:13:31;;;;;;;2.67;1.50;;;;;;;;;;4993179;28;91786;-74
2022/07/22 10:16:03;;;;;;;5.15;1.52;;;;;;;;;;5006395;28;92580;-74
2022/07/22 10:18:30;;;;;;;4.85;1.33;;;;;;;;;;5012389;28;95165;-74
2022/07/22 10:21:06;;;;;;;5.55;1.33;;;;;;;;;;5007381;28;94898;-73
2022/07/22 10:23:33;;;;;;;4.88;1.50;;;;;;;;;;5010122;28;96333;-73
2022/07/22 10:26:01;;;;;;;4.18;1.65;;;;;;;;;;5001433;28;94913;-74
2022/07/22 10:28:30;;;;;;;2.50;1.40;;;;;;;;;;4982897;28;93774;-75
2022/07/22 10:31:15;;;;;;;9.13;1.77;;;;;;;;;;4984898;28;92860;-73
2022/07/22 10:33:43;;;;;;;2.33;1.20;;;;;;;;;;4983050;28;94563;-72
2022/07/22 10:36:10;;;;;;;3.05;1.70;;;;;;;;;;4987329;28;94640;-73
2022/07/22 10:38:37;;;;;;;2.95;1.30;;;;;;;;;;5012547;28;91671;-74
2022/07/22 10:41:05;;;;;;;5.97;1.33;;;;;;;;;;4989965;28;93073;-73
2022/07/22 10:43:47;;;;;;;3.85;1.50;;;;;;;;;;4980435;28;93176;-73
2022/07/22 10:46:14;;;;;;;4.00;1.38;;;;;;;;;;4979453;28;95718;-72
2022/07/22 10:48:41;;;;;;;2.10;1.20;;;;;;;;;;4978616;28;93751;-73
2022/07/22 10:51:17;;;;;;;3.88;1.35;;;;;;;;;;4979185;28;93368;-73
2022/07/22 10:53:55;;;;;;;2.10;1.10;;;;;;;;;;4978327;28;92866;-73
2022/07/22 10:56:25;;;;;;;2.30;1.48;;;;;;;;;;4988774;28;92905;-73
2022/07/22 10:58:59;;;;;;;1.98;1.30;;;;;;;;;;4986219;28;94433;-73
2022/07/22 11:01:28;;;;;;;6.00;1.40;;;;;;;;;;4997023;28;92544;-73
2022/07/22 11:03:54;;;;;;;3.33;1.60;;;;;;;;;;4988759;28;94167;-73
2022/07/22 11:06:25;;;;;;;4.72;1.63;;;;;;;;;;4992264;28;93425;-73
2022/07/22 11:08:57;;;;;;;2.25;1.60;;;;;;;;;;4997748;28;92472;-73
2022/07/22 11:11:36;;;;;;;5.20;1.43;;;;;;;;;;4984266;28;95000;-72
2022/07/22 11:14:02;;;;;;;4.30;1.70;;;;;;;;;;4999971;28;93483;-72
2022/07/22 11:16:29;;;;;;;2.08;1.75;;;;;;;;;;4997004;28;93116;-73
2022/07/22 11:18:57;;;;;;;2.83;2.03;;;;;;;;;;4989220;28;93396;-72
2022/07/22 11:21:25;;;;;;;2.45;1.88;;;;;;;;;;5004066;28;92495;-72
2022/07/22 11:23:57;;;;;;;2.87;1.90;;;;;;;;;;4991651;28;92912;-72
2022/07/22 11:26:25;;;;;;;4.63;2.38;;;;;;;;;;4983963;28;93351;-72
2022/07/22 11:28:52;;;;;;;4.95;2.15;;;;;;;;;;4989057;28;91801;-71
2022/07/22 11:31:18;;;;;;;4.53;2.40;;;;;;;;;;4998531;28;92727;-72
2022/07/22 11:33:45;;;;;;;5.25;2.13;;;;;;;;;;5014121;28;94122;-72
2022/07/22 11:36:11;;;;;;;5.28;2.30;;;;;;;;;;5018373;28;95403;-72
2022/07/22 11:38:41;;;;;;;2.42;1.90;;;;;;;;;;4986032;28;93462;-71
2022/07/22 11:41:07;;;;;;;3.28;2.30;;;;;;;;;;4983830;28;93345;-72
2022/07/22 11:43:44;;;;;;;3.53;2.35;;;;;;;;;;4984271;28;94010;-72
2022/07/22 11:46:12;;;;;;;3.42;2.65;;;;;;;;;;4989501;28;94125;-72
2022/07/22 11:48:39;;;;;;;3.17;2.53;;;;;;;;;;4983369;28;92593;-72
2022/07/22 11:51:06;;;;;;;4.43;2.10;;;;;;;;;;4986856;28;92688;-72
2022/07/22 11:53:33;;;;;;;3.35;2.28;;;;;;;;;;4988870;28;92358;-72
2022/07/22 11:56:02;;;;;;;3.20;2.13;;;;;;;;;;4998507;28;94577;-72
2022/07/22 11:58:36;;;;;;;3.38;1.95;;;;;;;;;;4986175;28;92832;-72
2022/07/22 12:01:03;;;;;;;2.67;2.30;;;;;;;;;;4986929;28;98999;-73
2022/07/22 12:03:30;;;;;;;3.75;2.22;;;;;;;;;;4984527;28;95744;-72
2022/07/22 12:05:56;;;;;;;4.47;1.98;;;;;;;;;;4982850;28;93711;-72
2022/07/22 12:08:23;;;;;;;6.93;2.13;;;;;;;;;;4985397;28;95416;-72
2022/07/22 12:10:49;;;;;;;5.65;2.28;;;;;;;;;;4988176;28;94083;-72
2022/07/22 12:13:17;;;;;;;4.32;2.15;;;;;;;;;;4986935;28;93461;-72
2022/07/22 12:15:44;;;;;;;1.90;1.80;;;;;;;;;;4984152;28;93958;-72
2022/07/22 12:18:16;;;;;;;7.65;2.25;;;;;;;;;;4989698;28;93728;-71
2022/07/22 12:20:44;;;;;;;3.65;2.08;;;;;;;;;;4996169;28;94158;-72
2022/07/22 12:23:18;;;;;;;3.90;2.15;;;;;;;;;;4985999;28;94250;-72
2022/07/22 12:25:51;;;;;;;3.40;1.70;;;;;;;;;;4982217;28;97219;-72
2022/07/22 12:28:18;;;;;;;5.93;2.03;;;;;;;;;;4984215;28;92611;-71
2022/07/22 12:30:45;;;;;;;3.42;2.03;;;;;;;;;;4991771;28;92935;-72
2022/07/22 12:33:16;;;;;;;3.08;2.30;;;;;;;;;;4994170;28;94213;-72
2022/07/22 12:35:43;;;;;;;2.23;1.80;;;;;;;;;;4982564;28;93953;-72
2022/07/22 12:38:10;;;;;;;5.07;2.78;;;;;;;;;;4992201;28;94150;-75
2022/07/22 12:40:37;;;;;;;6.43;2.85;;;;;;;;;;4984735;28;94488;-73
2022/07/22 12:43:09;;;;;;;3.42;2.72;;;;;;;;;;5001251;28;93045;-73
2022/07/22 12:45:36;;;;;;;3.83;2.55;;;;;;;;;;4986911;28;94301;-72
2022/07/22 12:48:06;;;;;;;4.50;2.85;;;;;;;;;;4979402;28;92574;-71
2022/07/22 12:50:34;;;;;;;4.03;2.50;;;;;;;;;;4973956;28;95007;-71
2022/07/22 12:53:05;;;;;;;5.75;2.60;;;;;;;;;;4983905;27;93417;-71
2022/07/22 12:55:43;;;;;;;7.82;2.78;;;;;;;;;;4976024;28;94504;-72
2022/07/22 12:58:10;;;;;;;5.80;2.92;;;;;;;;;;4981152;28;93997;-71
2022/07/22 13:00:40;;;;;;;3.17;2.70;;;;;;;;;;4983397;28;94629;-71
2022/07/22 13:03:07;;;;;;;6.15;2.75;;;;;;;;;;4983371;28;93275;-72
2022/07/22 13:05:35;;;;;;;2.45;2.20;;;;;;;;;;4981007;27;93752;-71
2022/07/22 13:08:02;;;;;;;5.25;2.40;;;;;;;;;;4984609;27;93281;-72
2022/07/22 13:10:34;;;;;;;3.53;2.72;;;;;;;;;;4982635;28;93757;-72
2022/07/22 13:13:06;;;;;;;2.60;2.38;;;;;;;;;;4982434;28;93284;-72
2022/07/22 13:15:36;;;;;;;3.65;2.50;;;;;;;;;;4984173;28;94911;-72
2022/07/22 13:18:03;;;;;;;4.10;2.33;;;;;;;;;;4985002;28;95360;-71
2022/07/22 13:20:29;;;;;;;3.25;2.20;;;;;;;;;;4980749;27;93721;-72
2022/07/22 13:22:56;;;;;;;2.50;2.10;;;;;;;;;;4984546;28;93935;-72
2022/07/22 13:25:26;;;;;;;3.47;2.40;;;;;;;;;;4989951;28;92912;-72
2022/07/22 13:27:53;;;;;;;2.83;1.95;;;;;;;;;;4985217;28;92657;-72
2022/07/22 13:30:19;;;;;;;3.75;1.98;;;;;;;;;;4982881;28;93860;-72
2022/07/22 13:32:47;;;;;;;5.65;2.20;;;;;;;;;;4994158;28;93219;-71
2022/07/22 13:35:15;;;;;;;6.55;2.55;;;;;;;;;;4981667;28;95214;-72
2022/07/22 13:37:43;;;;;;;7.65;2.45;;;;;;;;;;4985071;28;93872;-72
2022/07/22 13:40:09;;;;;;;4.65;2.67;;;;;;;;;;4985056;28;95790;-71
2022/07/22 13:42:36;;;;;;;5.07;2.55;;;;;;;;;;4983272;28;94201;-72
2022/07/22 13:45:04;;;;;;;2.40;2.15;;;;;;;;;;4981287;28;95523;-72
2022/07/22 13:47:31;;;;;;;5.75;3.30;;;;;;;;;;4989477;28;94096;-71
2022/07/22 13:49:58;;;;;;;4.20;2.70;;;;;;;;;;4982447;28;94893;-71
2022/07/22 13:52:24;;;;;;;2.97;1.98;;;;;;;;;;4984781;28;96278;-71
2022/07/22 13:54:51;;;;;;;6.90;2.00;;;;;;;;;;4985633;28;93055;-71
2022/07/22 13:57:18;;;;;;;4.68;2.35;;;;;;;;;;4984080;28;93430;-71
2022/07/22 13:59:44;;;;;;;6.25;2.60;;;;;;;;;;4988702;28;93755;-71
2022/07/22 14:02:11;;;;;;;3.60;2.10;;;;;;;;;;4988663;28;93640;-72
2022/07/22 14:04:38;;;;;;;3.20;1.98;;;;;;;;;;4991875;28;94955;-71
2022/07/22 14:07:04;;;;;;;5.00;2.08;;;;;;;;;;4985825;28;95965;-72
2022/07/22 14:09:37;;;;;;;4.05;2.22;;;;;;;;;;4986150;28;94069;-72
2022/07/22 14:12:04;;;;;;;4.57;2.25;;;;;;;;;;4984717;28;96470;-72
2022/07/22 14:14:30;;;;;;;5.32;2.33;;;;;;;;;;4982830;28;94341;-72
2022/07/22 14:16:57;;;;;;;3.80;2.30;;;;;;;;;;4988256;28;93084;-72
2022/07/22 14:19:26;;;;;;;6.68;2.42;;;;;;;;;;4984995;28;92506;-71
2022/07/22 14:21:52;;;;;;;5.78;2.10;;;;;;;;;;4992270;28;93129;-71
2022/07/22 14:24:20;;;;;;;3.28;1.95;;;;;;;;;;4988446;28;93013;-71
2022/07/22 14:26:46;;;;;;;2.17;2.08;;;;;;;;;;4987712;28;94081;-71
2022/07/22 14:29:13;;;;;;;4.45;2.53;;;;;;;;;;4980494;28;96425;-73
2022/07/22 14:31:39;;;;;;;2.45;2.15;;;;;;;;;;4984783;28;95387;-72
2022/07/22 14:34:06;;;;;;;3.22;2.58;;;;;;;;;;4986102;28;95091;-72
2022/07/22 14:36:32;;;;;;;5.07;2.10;;;;;;;;;;4986715;28;92914;-72
2022/07/22 14:38:59;;;;;;;5.53;1.80;;;;;;;;;;4981131;28;94169;-72
2022/07/22 14:41:25;;;;;;;3.25;1.80;;;;;;;;;;4984887;28;94226;-72
2022/07/22 14:43:52;;;;;;;4.45;2.05;;;;;;;;;;4986217;28;92930;-72
2022/07/22 14:46:18;;;;;;;4.28;2.08;;;;;;;;;;4987293;28;92669;-72
2022/07/22 14:48:45;;;;;;;4.22;2.05;;;;;;;;;;4983592;28;94504;-72
2022/07/22 14:51:12;;;;;;;2.75;1.70;;;;;;;;;;4991691;28;93305;-72
2022/07/22 14:53:39;;;;;;;1.90;1.58;;;;;;;;;;4983743;28;97572;-72
2022/07/22 14:56:05;;;;;;;2.42;1.63;;;;;;;;;;4981852;28;94376;-72